sensor_id;sensor_type;location;lat;lon;timestamp;temperature;humidity
1083;DHT22;530;51.448;7.238;2023-03-01T00:00:53;2.50;99.90
1083;DHT22;530;51.448;7.238;2023-03-01T00:03:19;2.60;99.90
1083;DHT22;530;51.448;7.238;2023-03-01T00:05:47;2.50;99.90
1083;DHT22;530;51.448;7.238;2023-03-01T00:08:13;2.40;99.90
1083;DHT22;530;51.448;7.238;2023-03-01T00:10:39;2.60;99.90
1083;DHT22;530;51.448;7.238;2023-03-01T00:13:04;2.50;99.90
1083;DHT22;530;51.448;7.238;2023-03-01T00:15:31;2.50;99.90
1083;DHT22;530;51.448;7.238;2023-03-01T00:17:57;2.50;99.90
1083;DHT22;530;51.448;7.238;2023-03-01T00:20:23;2.30;99.90
1083;DHT22;530;51.448;7.238;2023-03-01T00:22:49;2.30;99.90
1083;DHT22;530;51.448;7.238;2023-03-01T00:25:14;2.50;99.90
1083;DHT22;530;51.448;7.238;2023-03-01T00:27:40;2.50;99.90
1083;DHT22;530;51.448;7.238;2023-03-01T00:30:06;2.40;99.90
1083;DHT22;530;51.448;7.238;2023-03-01T00:32:32;2.30;99.90
1083;DHT22;530;51.448;7.238;2023-03-01T00:34:58;2.50;99.90
1083;DHT22;530;51.448;7.238;2023-03-01T00:37:24;2.20;99.90
1083;DHT22;530;51.448;7.238;2023-03-01T00:39:50;2.20;99.90
1083;DHT22;530;51.448;7.238;2023-03-01T00:42:16;2.30;99.90
1083;DHT22;530;51.448;7.238;2023-03-01T00:44:42;2.10;99.90
1083;DHT22;530;51.448;7.238;2023-03-01T00:47:07;2.40;99.90
1083;DHT22;530;51.448;7.238;2023-03-01T00:49:33;2.10;99.90
1083;DHT22;530;51.448;7.238;2023-03-01T00:51:59;2.40;99.90
1083;DHT22;530;51.448;7.238;2023-03-01T00:54:25;2.20;99.90
1083;DHT22;530;51.448;7.238;2023-03-01T00:56:50;2.20;99.90
1083;DHT22;530;51.448;7.238;2023-03-01T00:59:16;2.00;99.90
1083;DHT22;530;51.448;7.238;2023-03-01T01:01:42;1.90;99.90
1083;DHT22;530;51.448;7.238;2023-03-01T01:04:10;2.10;99.90
1083;DHT22;530;51.448;7.238;2023-03-01T01:06:39;1.80;99.90
1083;DHT22;530;51.448;7.238;2023-03-01T01:09:08;1.80;99.90
1083;DHT22;530;51.448;7.238;2023-03-01T01:11:34;2.00;99.90
1083;DHT22;530;51.448;7.238;2023-03-01T01:14:02;1.90;99.90
1083;DHT22;530;51.448;7.238;2023-03-01T01:16:29;1.70;99.90
1083;DHT22;530;51.448;7.238;2023-03-01T01:18:56;1.70;99.90
1083;DHT22;530;51.448;7.238;2023-03-01T01:21:23;1.70;99.90
1083;DHT22;530;51.448;7.238;2023-03-01T01:23:49;1.70;99.90
1083;DHT22;530;51.448;7.238;2023-03-01T01:26:23;1.70;99.90
1083;DHT22;530;51.448;7.238;2023-03-01T01:28:50;1.80;99.90
1083;DHT22;530;51.448;7.238;2023-03-01T01:31:16;1.80;99.90
1083;DHT22;530;51.448;7.238;2023-03-01T01:33:42;1.80;99.90
1083;DHT22;530;51.448;7.238;2023-03-01T01:36:08;1.70;99.90
1083;DHT22;530;51.448;7.238;2023-03-01T01:38:35;1.70;99.90
1083;DHT22;530;51.448;7.238;2023-03-01T01:41:01;1.60;99.90
1083;DHT22;530;51.448;7.238;2023-03-01T01:43:31;1.80;99.90
1083;DHT22;530;51.448;7.238;2023-03-01T01:46:28;1.60;99.90
1083;DHT22;530;51.448;7.238;2023-03-01T01:49:09;1.70;99.90
1083;DHT22;530;51.448;7.238;2023-03-01T01:51:44;1.80;99.90
1083;DHT22;530;51.448;7.238;2023-03-01T01:54:16;1.70;99.90
1083;DHT22;530;51.448;7.238;2023-03-01T01:56:51;1.50;99.90
1083;DHT22;530;51.448;7.238;2023-03-01T01:59:18;1.60;99.90
1083;DHT22;530;51.448;7.238;2023-03-01T02:01:44;1.60;99.90
1083;DHT22;530;51.448;7.238;2023-03-01T02:04:18;1.70;99.90
1083;DHT22;530;51.448;7.238;2023-03-01T02:07:17;1.40;99.90
1083;DHT22;530;51.448;7.238;2023-03-01T02:09:49;1.60;99.90
1083;DHT22;530;51.448;7.238;2023-03-01T02:12:18;1.60;99.90
1083;DHT22;530;51.448;7.238;2023-03-01T02:14:47;1.70;99.90
1083;DHT22;530;51.448;7.238;2023-03-01T02:17:17;1.60;99.90
1083;DHT22;530;51.448;7.238;2023-03-01T02:20:04;1.70;99.90
1083;DHT22;530;51.448;7.238;2023-03-01T02:22:37;1.60;99.90
1083;DHT22;530;51.448;7.238;2023-03-01T02:30:25;1.40;99.90
1083;DHT22;530;51.448;7.238;2023-03-01T02:32:52;1.40;99.90
1083;DHT22;530;51.448;7.238;2023-03-01T02:35:35;1.50;99.90
1083;DHT22;530;51.448;7.238;2023-03-01T02:38:03;1.50;99.90
1083;DHT22;530;51.448;7.238;2023-03-01T02:40:34;1.60;99.90
1083;DHT22;530;51.448;7.238;2023-03-01T02:43:02;1.50;99.90
1083;DHT22;530;51.448;7.238;2023-03-01T02:45:30;1.30;99.90
1083;DHT22;530;51.448;7.238;2023-03-01T02:47:57;1.30;99.90
1083;DHT22;530;51.448;7.238;2023-03-01T02:55:45;1.50;99.90
1083;DHT22;530;51.448;7.238;2023-03-01T02:58:11;1.30;99.90
1083;DHT22;530;51.448;7.238;2023-03-01T03:00:39;1.30;99.90
1083;DHT22;530;51.448;7.238;2023-03-01T03:03:20;1.20;99.90
1083;DHT22;530;51.448;7.238;2023-03-01T03:05:46;1.20;99.90
1083;DHT22;530;51.448;7.238;2023-03-01T03:08:14;1.30;99.90
1083;DHT22;530;51.448;7.238;2023-03-01T03:10:42;1.30;99.90
1083;DHT22;530;51.448;7.238;2023-03-01T03:13:13;1.10;99.90
1083;DHT22;530;51.448;7.238;2023-03-01T03:15:41;1.20;99.90
1083;DHT22;530;51.448;7.238;2023-03-01T03:18:11;1.10;99.90
1083;DHT22;530;51.448;7.238;2023-03-01T03:20:38;1.10;99.90
1083;DHT22;530;51.448;7.238;2023-03-01T03:23:04;1.00;99.90
1083;DHT22;530;51.448;7.238;2023-03-01T03:25:30;1.10;99.90
1083;DHT22;530;51.448;7.238;2023-03-01T03:27:56;1.00;99.90
1083;DHT22;530;51.448;7.238;2023-03-01T03:30:29;1.20;99.90
1083;DHT22;530;51.448;7.238;2023-03-01T03:32:55;1.00;99.90
1083;DHT22;530;51.448;7.238;2023-03-01T03:35:32;1.10;99.90
1083;DHT22;530;51.448;7.238;2023-03-01T03:38:00;1.00;99.90
1083;DHT22;530;51.448;7.238;2023-03-01T03:40:42;1.00;99.90
1083;DHT22;530;51.448;7.238;2023-03-01T03:43:14;0.90;99.90
1083;DHT22;530;51.448;7.238;2023-03-01T03:45:40;1.00;99.90
1083;DHT22;530;51.448;7.238;2023-03-01T03:48:07;1.10;99.90
1083;DHT22;530;51.448;7.238;2023-03-01T03:50:33;0.80;99.90
1083;DHT22;530;51.448;7.238;2023-03-01T03:53:06;1.10;99.90
1083;DHT22;530;51.448;7.238;2023-03-01T03:55:32;1.10;99.90
1083;DHT22;530;51.448;7.238;2023-03-01T03:58:00;1.10;99.90
1083;DHT22;530;51.448;7.238;2023-03-01T04:00:33;0.90;99.90
1083;DHT22;530;51.448;7.238;2023-03-01T04:03:00;0.90;99.90
1083;DHT22;530;51.448;7.238;2023-03-01T04:05:26;1.00;99.90
1083;DHT22;530;51.448;7.238;2023-03-01T04:07:52;0.70;99.90
1083;DHT22;530;51.448;7.238;2023-03-01T04:10:30;0.70;99.90
1083;DHT22;530;51.448;7.238;2023-03-01T04:12:57;0.80;99.90
1083;DHT22;530;51.448;7.238;2023-03-01T04:15:24;0.80;99.90
1083;DHT22;530;51.448;7.238;2023-03-01T04:17:52;0.70;99.90
1083;DHT22;530;51.448;7.238;2023-03-01T04:20:20;0.90;99.90
1083;DHT22;530;51.448;7.238;2023-03-01T04:22:59;0.80;99.90
1083;DHT22;530;51.448;7.238;2023-03-01T04:25:24;0.90;99.90
1083;DHT22;530;51.448;7.238;2023-03-01T04:27:50;0.90;99.90
1083;DHT22;530;51.448;7.238;2023-03-01T04:30:16;0.70;99.90
1083;DHT22;530;51.448;7.238;2023-03-01T04:32:42;0.70;99.90
1083;DHT22;530;51.448;7.238;2023-03-01T04:35:08;0.60;99.90
1083;DHT22;530;51.448;7.238;2023-03-01T04:37:34;0.60;99.90
1083;DHT22;530;51.448;7.238;2023-03-01T04:40:01;0.50;99.90
1083;DHT22;530;51.448;7.238;2023-03-01T04:42:37;0.50;99.90
1083;DHT22;530;51.448;7.238;2023-03-01T04:45:03;0.50;99.90
1083;DHT22;530;51.448;7.238;2023-03-01T04:47:39;0.60;99.90
1083;DHT22;530;51.448;7.238;2023-03-01T04:50:06;0.60;99.90
1083;DHT22;530;51.448;7.238;2023-03-01T04:52:32;0.50;99.90
1083;DHT22;530;51.448;7.238;2023-03-01T04:54:57;0.40;99.90
1083;DHT22;530;51.448;7.238;2023-03-01T04:57:23;0.50;99.90
1083;DHT22;530;51.448;7.238;2023-03-01T04:59:48;0.40;99.90
1083;DHT22;530;51.448;7.238;2023-03-01T05:02:14;0.70;99.90
1083;DHT22;530;51.448;7.238;2023-03-01T05:04:40;0.50;99.90
1083;DHT22;530;51.448;7.238;2023-03-01T05:07:05;0.50;99.90
1083;DHT22;530;51.448;7.238;2023-03-01T05:09:31;0.50;99.90
1083;DHT22;530;51.448;7.238;2023-03-01T05:11:57;0.50;99.90
1083;DHT22;530;51.448;7.238;2023-03-01T05:14:22;0.50;99.90
1083;DHT22;530;51.448;7.238;2023-03-01T05:16:48;0.50;99.90
1083;DHT22;530;51.448;7.238;2023-03-01T05:19:14;0.50;99.90
1083;DHT22;530;51.448;7.238;2023-03-01T05:21:48;0.50;99.90
1083;DHT22;530;51.448;7.238;2023-03-01T05:24:35;0.60;99.90
1083;DHT22;530;51.448;7.238;2023-03-01T05:27:01;0.50;99.90
1083;DHT22;530;51.448;7.238;2023-03-01T05:29:29;0.40;99.90
1083;DHT22;530;51.448;7.238;2023-03-01T05:31:57;0.40;99.90
1083;DHT22;530;51.448;7.238;2023-03-01T05:34:34;0.30;99.90
1083;DHT22;530;51.448;7.238;2023-03-01T05:37:01;0.50;99.90
1083;DHT22;530;51.448;7.238;2023-03-01T05:39:29;0.40;99.90
1083;DHT22;530;51.448;7.238;2023-03-01T05:42:00;0.40;99.90
1083;DHT22;530;51.448;7.238;2023-03-01T05:44:27;0.30;99.90
1083;DHT22;530;51.448;7.238;2023-03-01T05:46:53;0.40;99.90
1083;DHT22;530;51.448;7.238;2023-03-01T05:49:19;0.40;99.90
1083;DHT22;530;51.448;7.238;2023-03-01T05:51:49;0.50;99.90
1083;DHT22;530;51.448;7.238;2023-03-01T05:54:15;0.20;99.90
1083;DHT22;530;51.448;7.238;2023-03-01T05:56:41;0.20;99.90
1083;DHT22;530;51.448;7.238;2023-03-01T05:59:07;0.20;99.90
1083;DHT22;530;51.448;7.238;2023-03-01T06:01:34;0.30;99.90
1083;DHT22;530;51.448;7.238;2023-03-01T06:04:00;0.30;99.90
1083;DHT22;530;51.448;7.238;2023-03-01T06:06:26;0.20;99.90
1083;DHT22;530;51.448;7.238;2023-03-01T06:08:53;0.10;99.90
1083;DHT22;530;51.448;7.238;2023-03-01T06:11:20;0.00;99.90
1083;DHT22;530;51.448;7.238;2023-03-01T06:13:46;0.20;99.90
1083;DHT22;530;51.448;7.238;2023-03-01T06:16:12;0.40;99.90
1083;DHT22;530;51.448;7.238;2023-03-01T06:18:38;0.10;99.90
1083;DHT22;530;51.448;7.238;2023-03-01T06:21:05;0.20;99.90
1083;DHT22;530;51.448;7.238;2023-03-01T06:23:31;0.20;99.90
1083;DHT22;530;51.448;7.238;2023-03-01T06:25:57;0.10;99.90
1083;DHT22;530;51.448;7.238;2023-03-01T06:28:22;0.10;99.90
1083;DHT22;530;51.448;7.238;2023-03-01T06:30:49;0.30;99.90
1083;DHT22;530;51.448;7.238;2023-03-01T06:33:15;0.20;99.90
1083;DHT22;530;51.448;7.238;2023-03-01T06:35:41;0.10;99.90
1083;DHT22;530;51.448;7.238;2023-03-01T06:38:07;0.10;99.90
1083;DHT22;530;51.448;7.238;2023-03-01T06:40:33;0.20;99.90
1083;DHT22;530;51.448;7.238;2023-03-01T06:43:00;0.20;99.90
1083;DHT22;530;51.448;7.238;2023-03-01T06:45:26;0.30;99.90
1083;DHT22;530;51.448;7.238;2023-03-01T06:47:52;0.30;99.90
1083;DHT22;530;51.448;7.238;2023-03-01T06:50:18;0.30;99.90
1083;DHT22;530;51.448;7.238;2023-03-01T06:52:45;0.40;99.90
1083;DHT22;530;51.448;7.238;2023-03-01T06:55:11;0.50;99.90
1083;DHT22;530;51.448;7.238;2023-03-01T06:57:37;0.60;99.90
1083;DHT22;530;51.448;7.238;2023-03-01T07:00:04;0.60;99.90
1083;DHT22;530;51.448;7.238;2023-03-01T07:02:30;0.40;99.90
1083;DHT22;530;51.448;7.238;2023-03-01T07:04:55;0.40;99.90
1083;DHT22;530;51.448;7.238;2023-03-01T07:07:21;0.40;99.90
1083;DHT22;530;51.448;7.238;2023-03-01T07:09:49;0.50;99.90
1083;DHT22;530;51.448;7.238;2023-03-01T07:12:14;0.40;99.90
1083;DHT22;530;51.448;7.238;2023-03-01T07:14:40;0.50;99.90
1083;DHT22;530;51.448;7.238;2023-03-01T07:17:06;0.70;99.90
1083;DHT22;530;51.448;7.238;2023-03-01T07:19:32;0.60;99.90
1083;DHT22;530;51.448;7.238;2023-03-01T07:21:57;0.70;99.90
1083;DHT22;530;51.448;7.238;2023-03-01T07:24:23;0.60;99.90
1083;DHT22;530;51.448;7.238;2023-03-01T07:26:50;0.70;99.90
1083;DHT22;530;51.448;7.238;2023-03-01T07:29:16;0.80;99.90
1083;DHT22;530;51.448;7.238;2023-03-01T07:31:42;0.90;99.90
1083;DHT22;530;51.448;7.238;2023-03-01T07:34:07;0.90;99.90
1083;DHT22;530;51.448;7.238;2023-03-01T07:36:33;1.10;99.90
1083;DHT22;530;51.448;7.238;2023-03-01T07:38:59;0.90;99.90
1083;DHT22;530;51.448;7.238;2023-03-01T07:41:27;1.20;99.90
1083;DHT22;530;51.448;7.238;2023-03-01T07:43:53;1.10;99.90
1083;DHT22;530;51.448;7.238;2023-03-01T07:46:19;1.30;99.90
1083;DHT22;530;51.448;7.238;2023-03-01T07:48:44;1.50;99.90
1083;DHT22;530;51.448;7.238;2023-03-01T07:51:11;1.70;99.90
1083;DHT22;530;51.448;7.238;2023-03-01T07:53:36;1.90;99.90
1083;DHT22;530;51.448;7.238;2023-03-01T07:56:13;2.00;99.90
1083;DHT22;530;51.448;7.238;2023-03-01T07:58:41;2.50;99.90
1083;DHT22;530;51.448;7.238;2023-03-01T08:01:09;2.50;99.90
1083;DHT22;530;51.448;7.238;2023-03-01T08:03:36;2.90;99.90
1083;DHT22;530;51.448;7.238;2023-03-01T08:06:04;3.10;99.90
1083;DHT22;530;51.448;7.238;2023-03-01T08:08:30;3.20;99.90
1083;DHT22;530;51.448;7.238;2023-03-01T08:10:57;3.20;99.90
1083;DHT22;530;51.448;7.238;2023-03-01T08:13:22;3.40;99.90
1083;DHT22;530;51.448;7.238;2023-03-01T08:15:49;3.50;99.90
1083;DHT22;530;51.448;7.238;2023-03-01T08:18:16;3.50;99.90
1083;DHT22;530;51.448;7.238;2023-03-01T08:20:41;3.80;99.90
1083;DHT22;530;51.448;7.238;2023-03-01T08:23:07;3.80;99.90
1083;DHT22;530;51.448;7.238;2023-03-01T08:25:33;4.00;99.90
1083;DHT22;530;51.448;7.238;2023-03-01T08:27:58;4.30;99.90
1083;DHT22;530;51.448;7.238;2023-03-01T08:30:24;4.60;99.90
1083;DHT22;530;51.448;7.238;2023-03-01T08:32:50;4.60;99.90
1083;DHT22;530;51.448;7.238;2023-03-01T08:35:17;4.80;99.90
1083;DHT22;530;51.448;7.238;2023-03-01T08:37:42;5.00;99.90
1083;DHT22;530;51.448;7.238;2023-03-01T08:40:09;5.30;99.90
1083;DHT22;530;51.448;7.238;2023-03-01T08:42:36;5.40;99.60
1083;DHT22;530;51.448;7.238;2023-03-01T08:45:03;5.60;98.90
1083;DHT22;530;51.448;7.238;2023-03-01T08:47:29;5.70;98.90
1083;DHT22;530;51.448;7.238;2023-03-01T08:49:54;5.80;98.70
1083;DHT22;530;51.448;7.238;2023-03-01T08:52:20;5.90;98.50
1083;DHT22;530;51.448;7.238;2023-03-01T08:54:49;6.00;98.10
1083;DHT22;530;51.448;7.238;2023-03-01T08:57:15;6.00;98.50
1083;DHT22;530;51.448;7.238;2023-03-01T08:59:41;6.10;98.60
1083;DHT22;530;51.448;7.238;2023-03-01T09:02:16;6.20;98.00
1083;DHT22;530;51.448;7.238;2023-03-01T09:04:42;6.40;98.50
1083;DHT22;530;51.448;7.238;2023-03-01T09:07:08;6.30;97.40
1083;DHT22;530;51.448;7.238;2023-03-01T09:09:35;6.50;98.00
1083;DHT22;530;51.448;7.238;2023-03-01T09:12:01;6.40;97.50
1083;DHT22;530;51.448;7.238;2023-03-01T09:14:28;6.60;97.90
1083;DHT22;530;51.448;7.238;2023-03-01T09:16:54;6.30;97.50
1083;DHT22;530;51.448;7.238;2023-03-01T09:19:19;6.70;97.80
1083;DHT22;530;51.448;7.238;2023-03-01T09:21:45;6.80;96.80
1083;DHT22;530;51.448;7.238;2023-03-01T09:24:19;6.90;96.50
1083;DHT22;530;51.448;7.238;2023-03-01T09:26:46;7.00;96.50
1083;DHT22;530;51.448;7.238;2023-03-01T09:29:12;7.10;96.10
1083;DHT22;530;51.448;7.238;2023-03-01T09:31:38;7.30;96.30
1083;DHT22;530;51.448;7.238;2023-03-01T09:34:04;7.40;95.40
1083;DHT22;530;51.448;7.238;2023-03-01T09:36:30;7.50;95.00
1083;DHT22;530;51.448;7.238;2023-03-01T09:38:56;7.60;94.40
1083;DHT22;530;51.448;7.238;2023-03-01T09:44:02;7.80;93.70
1083;DHT22;530;51.448;7.238;2023-03-01T09:46:37;7.90;93.40
1083;DHT22;530;51.448;7.238;2023-03-01T09:49:19;8.00;93.40
1083;DHT22;530;51.448;7.238;2023-03-01T09:55:00;8.00;91.10
1083;DHT22;530;51.448;7.238;2023-03-01T09:57:30;8.10;92.50
1083;DHT22;530;51.448;7.238;2023-03-01T10:02:46;8.00;91.40
1083;DHT22;530;51.448;7.238;2023-03-01T10:10:36;8.30;91.80
1083;DHT22;530;51.448;7.238;2023-03-01T10:13:16;8.40;91.60
1083;DHT22;530;51.448;7.238;2023-03-01T10:15:51;8.50;91.40
1083;DHT22;530;51.448;7.238;2023-03-01T10:18:26;8.60;91.40
1083;DHT22;530;51.448;7.238;2023-03-01T10:20:59;8.60;90.90
1083;DHT22;530;51.448;7.238;2023-03-01T10:23:27;8.50;90.60
1083;DHT22;530;51.448;7.238;2023-03-01T10:31:13;8.50;90.70
1083;DHT22;530;51.448;7.238;2023-03-01T10:33:41;8.60;90.90
1083;DHT22;530;51.448;7.238;2023-03-01T10:36:07;8.60;87.80
1083;DHT22;530;51.448;7.238;2023-03-01T10:38:49;8.60;89.70
1083;DHT22;530;51.448;7.238;2023-03-01T10:41:17;8.70;89.50
1083;DHT22;530;51.448;7.238;2023-03-01T10:46:31;8.60;89.90
1083;DHT22;530;51.448;7.238;2023-03-01T10:49:19;8.50;90.30
1083;DHT22;530;51.448;7.238;2023-03-01T10:51:48;8.60;90.30
1083;DHT22;530;51.448;7.238;2023-03-01T10:56:56;8.50;89.70
1083;DHT22;530;51.448;7.238;2023-03-01T10:59:33;8.50;89.80
1083;DHT22;530;51.448;7.238;2023-03-01T11:04:30;8.40;89.70
1083;DHT22;530;51.448;7.238;2023-03-01T11:07:00;8.40;89.60
1083;DHT22;530;51.448;7.238;2023-03-01T11:09:26;8.30;89.70
1083;DHT22;530;51.448;7.238;2023-03-01T11:11:59;8.30;89.00
1083;DHT22;530;51.448;7.238;2023-03-01T11:14:54;8.20;90.10
1083;DHT22;530;51.448;7.238;2023-03-01T11:17:31;8.10;90.20
1083;DHT22;530;51.448;7.238;2023-03-01T11:22:34;7.80;90.10
1083;DHT22;530;51.448;7.238;2023-03-01T11:25:01;7.80;90.50
1083;DHT22;530;51.448;7.238;2023-03-01T11:27:40;7.80;90.50
1083;DHT22;530;51.448;7.238;2023-03-01T11:35:35;7.50;91.20
1083;DHT22;530;51.448;7.238;2023-03-01T11:38:22;7.50;91.50
1083;DHT22;530;51.448;7.238;2023-03-01T11:49:28;7.80;91.00
1083;DHT22;530;51.448;7.238;2023-03-01T11:57:12;8.20;91.50
1083;DHT22;530;51.448;7.238;2023-03-01T12:08:10;8.40;90.50
1083;DHT22;530;51.448;7.238;2023-03-01T12:26:37;8.50;88.90
1083;DHT22;530;51.448;7.238;2023-03-01T12:40:10;8.70;90.00
1083;DHT22;530;51.448;7.238;2023-03-01T12:45:40;8.60;90.20
1083;DHT22;530;51.448;7.238;2023-03-01T12:50:48;8.70;90.00
1083;DHT22;530;51.448;7.238;2023-03-01T12:53:36;8.60;87.10
1083;DHT22;530;51.448;7.238;2023-03-01T12:56:06;8.60;87.40
1083;DHT22;530;51.448;7.238;2023-03-01T12:58:51;8.60;87.80
1083;DHT22;530;51.448;7.238;2023-03-01T13:09:50;8.30;88.70
1083;DHT22;530;51.448;7.238;2023-03-01T13:12:50;8.40;89.60
1083;DHT22;530;51.448;7.238;2023-03-01T13:15:30;8.40;87.40
1083;DHT22;530;51.448;7.238;2023-03-01T13:17:59;8.50;90.00
1083;DHT22;530;51.448;7.238;2023-03-01T13:20:31;8.50;87.60
1083;DHT22;530;51.448;7.238;2023-03-01T13:25:33;8.50;87.70
1083;DHT22;530;51.448;7.238;2023-03-01T13:30:59;8.40;88.60
1083;DHT22;530;51.448;7.238;2023-03-01T13:46:45;8.20;84.80
1083;DHT22;530;51.448;7.238;2023-03-01T13:49:16;8.30;85.00
1083;DHT22;530;51.448;7.238;2023-03-01T13:51:47;8.20;84.90
1083;DHT22;530;51.448;7.238;2023-03-01T13:54:14;8.40;86.40
1083;DHT22;530;51.448;7.238;2023-03-01T13:56:41;8.30;85.70
1083;DHT22;530;51.448;7.238;2023-03-01T13:59:17;8.30;85.20
1083;DHT22;530;51.448;7.238;2023-03-01T14:01:43;8.40;86.20
1083;DHT22;530;51.448;7.238;2023-03-01T14:04:35;8.40;85.80
1083;DHT22;530;51.448;7.238;2023-03-01T14:07:32;8.40;87.10
1083;DHT22;530;51.448;7.238;2023-03-01T14:10:02;8.50;86.50
1083;DHT22;530;51.448;7.238;2023-03-01T14:12:44;8.50;86.60
1083;DHT22;530;51.448;7.238;2023-03-01T14:15:34;8.50;85.00
1083;DHT22;530;51.448;7.238;2023-03-01T14:18:04;8.50;87.10
1083;DHT22;530;51.448;7.238;2023-03-01T14:20:37;8.40;85.60
1083;DHT22;530;51.448;7.238;2023-03-01T14:23:11;8.40;85.70
1083;DHT22;530;51.448;7.238;2023-03-01T14:25:38;8.40;84.90
1083;DHT22;530;51.448;7.238;2023-03-01T14:30:37;8.30;85.20
1083;DHT22;530;51.448;7.238;2023-03-01T14:33:05;8.10;84.70
1083;DHT22;530;51.448;7.238;2023-03-01T14:35:35;8.20;86.30
1083;DHT22;530;51.448;7.238;2023-03-01T14:38:01;8.20;85.00
1083;DHT22;530;51.448;7.238;2023-03-01T14:40:33;8.10;83.60
1083;DHT22;530;51.448;7.238;2023-03-01T14:43:02;8.10;83.70
1083;DHT22;530;51.448;7.238;2023-03-01T14:45:33;8.20;82.50
1083;DHT22;530;51.448;7.238;2023-03-01T14:48:04;8.10;81.80
1083;DHT22;530;51.448;7.238;2023-03-01T14:50:34;8.10;81.20
1083;DHT22;530;51.448;7.238;2023-03-01T14:53:03;8.10;83.40
1083;DHT22;530;51.448;7.238;2023-03-01T14:55:35;8.10;83.40
1083;DHT22;530;51.448;7.238;2023-03-01T14:58:09;8.10;83.60
1083;DHT22;530;51.448;7.238;2023-03-01T15:00:37;8.00;83.10
1083;DHT22;530;51.448;7.238;2023-03-01T15:03:11;7.90;82.00
1083;DHT22;530;51.448;7.238;2023-03-01T15:05:39;7.90;83.40
1083;DHT22;530;51.448;7.238;2023-03-01T15:08:05;8.00;84.20
1083;DHT22;530;51.448;7.238;2023-03-01T15:10:34;8.00;85.20
1083;DHT22;530;51.448;7.238;2023-03-01T15:13:23;8.00;84.40
1083;DHT22;530;51.448;7.238;2023-03-01T15:15:50;7.90;83.20
1083;DHT22;530;51.448;7.238;2023-03-01T15:18:22;7.90;83.60
1083;DHT22;530;51.448;7.238;2023-03-01T15:20:51;7.90;84.10
1083;DHT22;530;51.448;7.238;2023-03-01T15:23:28;8.00;84.40
1083;DHT22;530;51.448;7.238;2023-03-01T15:25:55;7.80;82.90
1083;DHT22;530;51.448;7.238;2023-03-01T15:28:27;7.80;84.50
1083;DHT22;530;51.448;7.238;2023-03-01T15:33:36;7.80;84.40
1083;DHT22;530;51.448;7.238;2023-03-01T15:38:52;7.60;82.10
1083;DHT22;530;51.448;7.238;2023-03-01T15:41:28;7.60;83.00
1083;DHT22;530;51.448;7.238;2023-03-01T15:44:00;7.60;83.90
1083;DHT22;530;51.448;7.238;2023-03-01T15:46:30;7.60;84.20
1083;DHT22;530;51.448;7.238;2023-03-01T15:49:00;7.60;84.20
1083;DHT22;530;51.448;7.238;2023-03-01T15:51:33;7.60;84.20
1083;DHT22;530;51.448;7.238;2023-03-01T15:54:04;7.60;84.70
1083;DHT22;530;51.448;7.238;2023-03-01T15:56:30;7.60;85.30
1083;DHT22;530;51.448;7.238;2023-03-01T15:59:00;7.60;84.90
1083;DHT22;530;51.448;7.238;2023-03-01T16:01:27;7.60;85.00
1083;DHT22;530;51.448;7.238;2023-03-01T16:03:53;7.50;84.70
1083;DHT22;530;51.448;7.238;2023-03-01T16:06:19;7.50;83.30
1083;DHT22;530;51.448;7.238;2023-03-01T16:08:45;7.50;83.00
1083;DHT22;530;51.448;7.238;2023-03-01T16:11:16;7.50;84.50
1083;DHT22;530;51.448;7.238;2023-03-01T16:13:43;7.40;82.50
1083;DHT22;530;51.448;7.238;2023-03-01T16:16:10;7.30;82.60
1083;DHT22;530;51.448;7.238;2023-03-01T16:18:38;7.30;84.20
1083;DHT22;530;51.448;7.238;2023-03-01T16:21:04;7.30;84.40
1083;DHT22;530;51.448;7.238;2023-03-01T16:23:30;7.20;83.60
1083;DHT22;530;51.448;7.238;2023-03-01T16:25:59;7.20;83.90
1083;DHT22;530;51.448;7.238;2023-03-01T16:28:25;7.20;84.70
1083;DHT22;530;51.448;7.238;2023-03-01T16:30:52;7.20;84.80
1083;DHT22;530;51.448;7.238;2023-03-01T16:33:17;7.20;85.00
1083;DHT22;530;51.448;7.238;2023-03-01T16:35:43;7.20;85.50
1083;DHT22;530;51.448;7.238;2023-03-01T16:38:09;7.10;85.20
1083;DHT22;530;51.448;7.238;2023-03-01T16:40:35;7.10;85.50
1083;DHT22;530;51.448;7.238;2023-03-01T16:43:01;7.00;85.40
1083;DHT22;530;51.448;7.238;2023-03-01T16:45:29;7.00;85.30
1083;DHT22;530;51.448;7.238;2023-03-01T16:47:58;6.90;85.10
1083;DHT22;530;51.448;7.238;2023-03-01T16:50:24;6.50;84.10
1083;DHT22;530;51.448;7.238;2023-03-01T16:52:50;6.80;85.20
1083;DHT22;530;51.448;7.238;2023-03-01T16:55:16;6.80;84.60
1083;DHT22;530;51.448;7.238;2023-03-01T16:57:42;6.80;85.90
1083;DHT22;530;51.448;7.238;2023-03-01T17:00:10;6.80;86.30
1083;DHT22;530;51.448;7.238;2023-03-01T17:02:38;6.80;86.50
1083;DHT22;530;51.448;7.238;2023-03-01T17:05:05;6.80;86.70
1083;DHT22;530;51.448;7.238;2023-03-01T17:07:32;6.80;86.10
1083;DHT22;530;51.448;7.238;2023-03-01T17:10:02;6.70;87.20
1083;DHT22;530;51.448;7.238;2023-03-01T17:12:28;6.70;87.50
1083;DHT22;530;51.448;7.238;2023-03-01T17:14:54;6.80;87.40
1083;DHT22;530;51.448;7.238;2023-03-01T17:17:20;6.60;87.20
1083;DHT22;530;51.448;7.238;2023-03-01T17:19:46;6.60;86.70
1083;DHT22;530;51.448;7.238;2023-03-01T17:22:11;6.50;86.90
1083;DHT22;530;51.448;7.238;2023-03-01T17:24:43;6.50;87.40
1083;DHT22;530;51.448;7.238;2023-03-01T17:27:10;6.40;87.40
1083;DHT22;530;51.448;7.238;2023-03-01T17:29:37;6.50;87.70
1083;DHT22;530;51.448;7.238;2023-03-01T17:32:03;6.40;88.00
1083;DHT22;530;51.448;7.238;2023-03-01T17:34:31;6.50;88.40
1083;DHT22;530;51.448;7.238;2023-03-01T17:36:56;6.50;87.90
1083;DHT22;530;51.448;7.238;2023-03-01T17:39:22;6.30;88.00
1083;DHT22;530;51.448;7.238;2023-03-01T17:41:53;6.40;88.40
1083;DHT22;530;51.448;7.238;2023-03-01T17:44:19;5.90;87.60
1083;DHT22;530;51.448;7.238;2023-03-01T17:46:45;6.10;88.30
1083;DHT22;530;51.448;7.238;2023-03-01T17:49:11;6.30;88.30
1083;DHT22;530;51.448;7.238;2023-03-01T17:51:36;6.20;88.10
1083;DHT22;530;51.448;7.238;2023-03-01T17:54:03;6.20;87.40
1083;DHT22;530;51.448;7.238;2023-03-01T17:56:29;6.20;86.90
1083;DHT22;530;51.448;7.238;2023-03-01T17:58:56;6.10;87.30
1083;DHT22;530;51.448;7.238;2023-03-01T18:01:22;6.30;86.90
1083;DHT22;530;51.448;7.238;2023-03-01T18:03:50;6.20;86.60
1083;DHT22;530;51.448;7.238;2023-03-01T18:06:19;6.20;86.80
1083;DHT22;530;51.448;7.238;2023-03-01T18:08:46;6.10;86.80
1083;DHT22;530;51.448;7.238;2023-03-01T18:11:13;6.20;86.80
1083;DHT22;530;51.448;7.238;2023-03-01T18:13:39;6.10;86.50
1083;DHT22;530;51.448;7.238;2023-03-01T18:16:11;6.20;86.30
1083;DHT22;530;51.448;7.238;2023-03-01T18:18:38;6.20;86.50
1083;DHT22;530;51.448;7.238;2023-03-01T18:21:04;6.20;86.70
1083;DHT22;530;51.448;7.238;2023-03-01T18:23:31;6.20;86.50
1083;DHT22;530;51.448;7.238;2023-03-01T18:25:59;6.20;86.30
1083;DHT22;530;51.448;7.238;2023-03-01T18:28:29;6.00;86.30
1083;DHT22;530;51.448;7.238;2023-03-01T18:30:59;5.70;86.00
1083;DHT22;530;51.448;7.238;2023-03-01T18:33:25;6.00;86.30
1083;DHT22;530;51.448;7.238;2023-03-01T18:35:52;6.20;87.00
1083;DHT22;530;51.448;7.238;2023-03-01T18:38:18;6.00;86.90
1083;DHT22;530;51.448;7.238;2023-03-01T18:40:47;6.00;87.30
1083;DHT22;530;51.448;7.238;2023-03-01T18:43:12;5.90;87.10
1083;DHT22;530;51.448;7.238;2023-03-01T18:45:38;6.00;87.10
1083;DHT22;530;51.448;7.238;2023-03-01T18:48:08;5.90;87.20
1083;DHT22;530;51.448;7.238;2023-03-01T18:50:34;5.90;87.30
1083;DHT22;530;51.448;7.238;2023-03-01T18:52:59;6.00;88.10
1083;DHT22;530;51.448;7.238;2023-03-01T18:55:25;6.00;88.00
1083;DHT22;530;51.448;7.238;2023-03-01T18:57:50;6.10;88.60
1083;DHT22;530;51.448;7.238;2023-03-01T19:00:17;6.00;88.60